Time;durP1;ratioP1;P1;durP2;ratioP2;P2;SDS_P1;SDS_P2;PMS_P1;PMS_P2;Temp;Humidity;BMP_temperature;BMP_pressure;BME280_temperature;BME280_humidity;BME280_pressure;Samples;Min_cycle;Max_cycle;Signal;HPM_P1;HPM_P2
2023/10/07 00:01:42;;;;;;;;;;;;;;;13.71;97.65;102137.63;4904543;29;19930;-96
2023/10/07 00:04:14;;;;;;;;;;;;;;;13.68;97.87;102134.91;4903647;29;19974;-96
2023/10/07 00:06:45;;;;;;;;;;;;;;;13.66;97.26;102123.50;4904427;29;19915;-96
2023/10/07 00:09:22;;;;;;;;;;;;;;;13.63;98.98;102122.50;4904352;29;19915;-96
2023/10/07 00:11:47;;;;;;;;;;;;;;;13.61;98.16;102118.97;4904509;29;19948;-96
2023/10/07 00:14:14;;;;;;;;;;;;;;;13.63;98.31;102112.03;4904357;29;20358;-96
2023/10/07 00:16:43;;;;;;;;;;;;;;;13.62;98.32;102107.66;4904174;29;19915;-96
2023/10/07 00:19:08;;;;;;;;;;;;;;;13.59;98.44;102112.78;4903222;29;19915;-96
2023/10/07 00:21:59;;;;;;;;;;;;;;;13.56;98.76;102109.22;4903697;29;20408;-96
2023/10/07 00:24:26;;;;;;;;;;;;;;;13.55;98.80;102112.66;4903930;29;19915;-96
2023/10/07 00:26:59;;;;;;;;;;;;;;;13.55;98.12;102103.94;4903942;29;19998;-96
2023/10/07 00:29:25;;;;;;;;;;;;;;;13.57;98.78;102104.91;4903792;29;20014;-96
2023/10/07 00:31:56;;;;;;;;;;;;;;;13.55;99.04;102103.94;4903889;29;19959;-96
2023/10/07 00:34:31;;;;;;;;;;;;;;;13.55;99.60;102104.81;4904172;29;19915;-96
2023/10/07 00:37:00;;;;;;;;;;;;;;;13.51;99.99;102110.81;4903484;29;19923;-96
2023/10/07 00:39:32;;;;;;;;;;;;;;;13.60;100.00;102107.59;4904037;29;20029;-96
2023/10/07 00:41:58;;;;;;;;;;;;;;;13.51;100.00;102107.28;4903692;29;19919;-96
2023/10/07 00:44:31;;;;;;;;;;;;;;;13.52;100.00;102103.84;4902702;29;19927;-96
2023/10/07 00:49:40;;;;;;;;;;;;;;;13.47;100.00;102116.78;4919870;29;19947;-96
2023/10/07 00:52:11;;;;;;;;;;;;;;;13.49;100.00;102119.47;4901936;29;19915;-96
2023/10/07 00:57:23;;;;;;;;;;;;;;;13.54;100.00;102115.25;4921295;29;20005;-96
2023/10/07 00:59:57;;;;;;;;;;;;;;;13.49;100.00;102114.22;4903099;29;19922;-96
2023/10/07 01:02:31;;;;;;;;;;;;;;;13.54;100.00;102103.06;4903432;29;20349;-96
2023/10/07 01:05:21;;;;;;;;;;;;;;;13.50;100.00;102087.22;4903708;29;19921;-96
2023/10/07 01:07:53;;;;;;;;;;;;;;;13.48;100.00;102092.38;4903702;29;19915;-96
2023/10/07 01:10:24;;;;;;;;;;;;;;;13.46;100.00;102088.81;4903164;29;19915;-96
2023/10/07 01:12:55;;;;;;;;;;;;;;;13.46;100.00;102095.81;4903135;29;19919;-96
2023/10/07 01:15:30;;;;;;;;;;;;;;;13.44;100.00;102087.00;4903586;29;19950;-96
2023/10/07 01:18:05;;;;;;;;;;;;;;;13.42;100.00;102084.31;4902546;29;19919;-96
2023/10/07 01:20:59;;;;;;;;;;;;;;;13.41;100.00;102084.28;4901199;29;19915;-96
2023/10/07 01:23:34;;;;;;;;;;;;;;;13.43;100.00;102106.19;4920105;29;19923;-96
2023/10/07 01:26:14;;;;;;;;;;;;;;;13.45;100.00;102113.22;4902272;29;20006;-96
2023/10/07 01:29:02;;;;;;;;;;;;;;;13.42;100.00;102117.50;4902091;29;19915;-96
2023/10/07 01:31:31;;;;;;;;;;;;;;;13.46;100.00;102114.13;4904195;29;19937;-96
2023/10/07 01:34:02;;;;;;;;;;;;;;;13.41;100.00;102102.59;4902388;29;19915;-96
2023/10/07 01:36:27;;;;;;;;;;;;;;;13.38;100.00;102117.38;4901705;29;19929;-96
2023/10/07 01:39:01;;;;;;;;;;;;;;;13.42;100.00;102102.66;4902607;29;19915;-96
2023/10/07 01:41:37;;;;;;;;;;;;;;;13.37;100.00;102107.75;4901992;29;19926;-96
2023/10/07 01:44:06;;;;;;;;;;;;;;;13.37;100.00;102099.91;4902686;29;19916;-96
2023/10/07 01:46:34;;;;;;;;;;;;;;;13.42;100.00;102086.06;4901491;29;19965;-96
2023/10/07 01:49:16;;;;;;;;;;;;;;;13.35;100.00;102101.59;4902374;29;19966;-96
2023/10/07 01:51:47;;;;;;;;;;;;;;;13.34;100.00;102094.56;4902054;29;19919;-96
2023/10/07 01:54:15;;;;;;;;;;;;;;;13.31;100.00;102080.44;4902210;29;19916;-96
2023/10/07 01:56:41;;;;;;;;;;;;;;;13.30;100.00;102082.19;4901629;29;20010;-96
2023/10/07 02:01:41;;;;;;;;;;;;;;;13.31;100.00;102089.19;4918910;29;19919;-96
2023/10/07 02:04:26;;;;;;;;;;;;;;;13.35;100.00;102091.13;4902077;29;19975;-96
2023/10/07 02:06:51;;;;;;;;;;;;;;;13.33;100.00;102084.88;4902814;29;19954;-96
2023/10/07 02:09:24;;;;;;;;;;;;;;;13.36;100.00;102076.28;4902607;29;19940;-96
2023/10/07 02:12:18;;;;;;;;;;;;;;;13.37;100.00;102094.66;4901978;29;19915;-96
2023/10/07 02:14:46;;;;;;;;;;;;;;;13.41;100.00;102084.28;4903690;29;19921;-96
2023/10/07 02:17:18;;;;;;;;;;;;;;;13.43;100.00;102082.63;4902404;29;19915;-96
2023/10/07 02:19:49;;;;;;;;;;;;;;;13.43;100.00;102061.69;4903333;29;19915;-96
2023/10/07 02:22:27;;;;;;;;;;;;;;;13.47;100.00;102063.53;4902482;29;19935;-96
2023/10/07 02:25:05;;;;;;;;;;;;;;;13.48;100.00;102074.03;4902736;29;19915;-96
2023/10/07 02:27:42;;;;;;;;;;;;;;;13.48;100.00;102086.25;4904027;29;19915;-96
2023/10/07 02:30:16;;;;;;;;;;;;;;;13.52;100.00;102083.78;4905215;29;20361;-96
2023/10/07 02:32:54;;;;;;;;;;;;;;;13.54;100.00;102071.63;4906055;29;19982;-96
2023/10/07 02:35:30;;;;;;;;;;;;;;;13.54;100.00;102073.34;4906125;29;19930;-96
2023/10/07 02:38:03;;;;;;;;;;;;;;;13.58;100.00;102088.31;4906822;29;19974;-96
2023/10/07 02:40:49;;;;;;;;;;;;;;;13.72;100.00;102092.25;4907110;29;19919;-96
2023/10/07 02:43:17;;;;;;;;;;;;;;;13.69;100.00;102091.28;4906742;29;19919;-96
2023/10/07 02:45:45;;;;;;;;;;;;;;;13.69;100.00;102092.16;4906285;29;20374;-96
2023/10/07 02:48:13;;;;;;;;;;;;;;;13.73;100.00;102086.19;4906365;29;19915;-96
2023/10/07 02:50:44;;;;;;;;;;;;;;;13.73;100.00;102085.31;4902976;29;20362;-96
2023/10/07 02:53:14;;;;;;;;;;;;;;;13.77;100.00;102078.41;4904592;29;19976;-96
2023/10/07 02:55:58;;;;;;;;;;;;;;;13.78;100.00;102093.28;4905207;29;19950;-96
2023/10/07 02:58:41;;;;;;;;;;;;;;;13.85;100.00;102085.66;4906306;29;19911;-96
2023/10/07 03:01:16;;;;;;;;;;;;;;;13.87;100.00;102091.81;4905050;29;19926;-96
2023/10/07 03:04:00;;;;;;;;;;;;;;;13.89;100.00;102084.03;4905023;29;19919;-96
2023/10/07 03:06:28;;;;;;;;;;;;;;;13.92;100.00;102094.59;4905638;29;19919;-96
2023/10/07 03:09:10;;;;;;;;;;;;;;;13.90;100.00;102091.03;4905970;29;19922;-96
2023/10/07 03:11:49;;;;;;;;;;;;;;;13.97;100.00;102087.75;4905948;29;19919;-96
2023/10/07 03:14:23;;;;;;;;;;;;;;;13.93;100.00;102085.00;4906505;29;20424;-96
2023/10/07 03:16:59;;;;;;;;;;;;;;;13.97;100.00;102079.88;4905748;29;19950;-96
2023/10/07 03:22:15;;;;;;;;;;;;;;;14.02;100.00;102087.88;4922776;29;20019;-96
2023/10/07 03:24:59;;;;;;;;;;;;;;;14.09;100.00;102085.50;4904944;29;19915;-96
2023/10/07 03:27:26;;;;;;;;;;;;;;;14.07;100.00;102073.19;4906022;29;19942;-96
2023/10/07 03:30:27;;;;;;;;;;;;;;;14.09;100.00;102067.16;4906663;29;20028;-96
2023/10/07 03:33:01;;;;;;;;;;;;;;;14.08;100.00;102078.47;4918277;29;19922;-96
2023/10/07 03:36:07;;;;;;;;;;;;;;;14.12;100.00;102070.69;4907030;29;19927;-96
2023/10/07 03:38:26;;;;;;;;;;;;;;;14.13;100.00;102077.72;4922472;29;19919;-96
2023/10/07 03:40:54;;;;;;;;;;;;;;;14.12;100.00;102074.22;4904760;29;19949;-96
2023/10/07 03:43:26;;;;;;;;;;;;;;;14.12;100.00;102075.94;4905022;29;20010;-96
2023/10/07 03:45:53;;;;;;;;;;;;;;;14.18;100.00;102073.50;4905553;29;19919;-96
2023/10/07 03:48:39;;;;;;;;;;;;;;;14.15;100.00;102076.03;4905859;29;19916;-96
2023/10/07 03:51:05;;;;;;;;;;;;;;;14.17;100.00;102064.75;4904808;29;19919;-96
2023/10/07 03:53:44;;;;;;;;;;;;;;;14.19;100.00;102049.97;4904831;29;19915;-96
2023/10/07 03:56:10;;;;;;;;;;;;;;;14.20;100.00;102054.34;4905384;29;19938;-96
2023/10/07 03:58:36;;;;;;;;;;;;;;;14.20;100.00;102042.97;4904396;29;19926;-96
2023/10/07 04:01:11;;;;;;;;;;;;;;;14.24;100.00;102048.34;4904568;29;19939;-96
2023/10/07 04:03:38;;;;;;;;;;;;;;;14.24;100.00;102048.34;4905696;29;20015;-96
2023/10/07 04:06:04;;;;;;;;;;;;;;;14.26;100.00;102045.75;4905916;29;19915;-96
2023/10/07 04:08:32;;;;;;;;;;;;;;;14.31;100.00;102040.63;4904783;29;19915;-96
2023/10/07 04:10:58;;;;;;;;;;;;;;;14.28;100.00;102033.59;4904793;29;20444;-96
2023/10/07 04:13:24;;;;;;;;;;;;;;;14.30;100.00;102026.66;4905457;29;19966;-96
2023/10/07 04:15:52;;;;;;;;;;;;;;;14.30;100.00;102033.66;4904876;29;20361;-96
2023/10/07 04:18:34;;;;;;;;;;;;;;;14.30;100.00;102029.28;4904668;29;19923;-96
2023/10/07 04:21:02;;;;;;;;;;;;;;;14.31;100.00;102033.69;4903362;29;19915;-96
2023/10/07 04:23:28;;;;;;;;;;;;;;;14.35;100.00;102043.41;4904749;29;19919;-96
2023/10/07 04:26:08;;;;;;;;;;;;;;;14.35;100.00;102048.66;4907779;29;20036;-96
2023/10/07 04:28:36;;;;;;;;;;;;;;;14.37;100.00;102038.22;4905540;29;19915;-96
2023/10/07 04:31:09;;;;;;;;;;;;;;;14.33;100.00;102038.97;4905369;29;19923;-96
2023/10/07 04:33:40;;;;;;;;;;;;;;;14.36;100.00;102042.53;4906087;29;20337;-96
2023/10/07 04:36:13;;;;;;;;;;;;;;;14.33;100.00;102050.34;4904349;29;19927;-96
2023/10/07 04:41:30;;;;;;;;;;;;;;;14.43;100.00;102047.13;4922151;29;19946;-96
2023/10/07 04:43:59;;;;;;;;;;;;;;;14.47;100.00;102057.69;4904450;29;19986;-96
2023/10/07 04:46:36;;;;;;;;;;;;;;;14.45;100.00;102044.53;4903695;29;19916;-96
2023/10/07 04:49:26;;;;;;;;;;;;;;;14.48;100.00;102048.97;4903563;29;19915;-96
2023/10/07 04:51:47;;;;;;;;;;;;;;;14.47;100.00;102060.31;4919955;29;19915;-96
2023/10/07 04:54:20;;;;;;;;;;;;;;;14.52;100.00;102056.97;4904644;29;19926;-96
2023/10/07 04:56:48;;;;;;;;;;;;;;;14.51;100.00;102067.41;4904392;29;19930;-96
2023/10/07 04:59:17;;;;;;;;;;;;;;;14.47;100.00;102062.94;4903581;29;19998;-96
2023/10/07 05:01:47;;;;;;;;;;;;;;;14.52;100.00;102066.56;4903825;29;19925;-96
2023/10/07 05:04:15;;;;;;;;;;;;;;;14.44;100.00;102059.38;4903885;29;19915;-96
2023/10/07 05:06:42;;;;;;;;;;;;;;;14.44;100.00;102064.63;4902787;29;19938;-96
2023/10/07 05:09:18;;;;;;;;;;;;;;;14.51;100.00;102064.78;4903228;29;19911;-96
2023/10/07 05:11:47;;;;;;;;;;;;;;;14.49;100.00;102061.25;4904611;29;19915;-96
2023/10/07 05:14:21;;;;;;;;;;;;;;;14.47;100.00;102062.94;4904109;29;19941;-96
2023/10/07 05:16:49;;;;;;;;;;;;;;;14.52;100.00;102056.09;4888177;29;19919;-96
2023/10/07 05:19:19;;;;;;;;;;;;;;;14.49;100.00;102063.88;4902606;29;19951;-96
2023/10/07 05:21:58;;;;;;;;;;;;;;;14.44;100.00;102059.38;4903542;29;19927;-96
2023/10/07 05:24:28;;;;;;;;;;;;;;;14.44;100.00;102064.63;4904216;29;19962;-96
2023/10/07 05:26:59;;;;;;;;;;;;;;;14.47;100.00;102062.94;4904156;29;19915;-96
2023/10/07 05:29:28;;;;;;;;;;;;;;;14.46;100.00;102067.28;4903645;29;19922;-96
2023/10/07 05:32:01;;;;;;;;;;;;;;;14.50;100.00;102063.03;4903898;29;20377;-96
2023/10/07 05:34:33;;;;;;;;;;;;;;;14.46;100.00;102055.94;4903273;29;19922;-96
2023/10/07 05:37:04;;;;;;;;;;;;;;;14.47;100.00;102048.09;4903338;29;20381;-96
2023/10/07 05:39:35;;;;;;;;;;;;;;;14.47;100.00;102044.56;4901844;29;19915;-96
2023/10/07 05:42:01;;;;;;;;;;;;;;;14.46;100.00;102042.81;4903241;29;19926;-96
2023/10/07 05:44:35;;;;;;;;;;;;;;;14.49;100.00;102050.75;4902148;29;19915;-96
2023/10/07 05:47:02;;;;;;;;;;;;;;;14.49;100.00;102056.00;4901470;29;20501;-96
2023/10/07 05:49:28;;;;;;;;;;;;;;;14.47;100.00;102055.06;4903276;29;20366;-96
2023/10/07 05:51:58;;;;;;;;;;;;;;;14.46;100.00;102055.94;4902667;29;19923;-96
2023/10/07 05:54:31;;;;;;;;;;;;;;;14.44;100.00;102064.63;4903042;29;20396;-96
2023/10/07 05:57:04;;;;;;;;;;;;;;;14.44;100.00;102059.38;4903829;29;20373;-96
2023/10/07 05:59:33;;;;;;;;;;;;;;;14.44;100.00;102051.53;4902611;29;19994;-96
2023/10/07 06:02:05;;;;;;;;;;;;;;;14.44;100.00;102048.91;4901444;29;19926;-96
2023/10/07 06:04:31;;;;;;;;;;;;;;;14.43;100.00;102057.59;4903628;29;20373;-96
2023/10/07 06:06:57;;;;;;;;;;;;;;;14.47;100.00;102063.84;4903311;29;19922;-96
2023/10/07 06:09:25;;;;;;;;;;;;;;;14.48;100.00;102069.97;4903428;29;20440;-96
2023/10/07 06:11:50;;;;;;;;;;;;;;;14.66;100.00;102067.00;4904052;29;19922;-96
2023/10/07 06:14:19;;;;;;;;;;;;;;;14.53;100.00;102063.13;4903802;29;19915;-96
2023/10/07 06:16:44;;;;;;;;;;;;;;;14.62;100.00;102075.63;4902977;29;19919;-96
2023/10/07 06:19:17;;;;;;;;;;;;;;;14.56;100.00;102081.56;4903140;29;19915;-96
2023/10/07 06:21:51;;;;;;;;;;;;;;;14.57;100.00;102078.06;4903403;29;19919;-96
2023/10/07 06:24:21;;;;;;;;;;;;;;;14.59;100.00;102071.13;4902924;29;19998;-96
2023/10/07 06:26:47;;;;;;;;;;;;;;;14.59;100.00;102071.13;4902012;29;19958;-96
2023/10/07 06:29:18;;;;;;;;;;;;;;;14.58;100.00;102066.72;4902917;29;20273;-96
2023/10/07 06:31:48;;;;;;;;;;;;;;;14.64;100.00;102082.66;4902651;29;19916;-96
2023/10/07 06:34:25;;;;;;;;;;;;;;;14.66;100.00;102083.59;4903135;29;19915;-96
2023/10/07 06:36:52;;;;;;;;;;;;;;;14.63;100.00;102098.34;4902067;29;19923;-96
2023/10/07 06:39:27;;;;;;;;;;;;;;;14.69;100.00;102101.16;4903665;29;19915;-96
2023/10/07 06:41:58;;;;;;;;;;;;;;;14.65;100.00;102094.94;4903277;29;19919;-96
2023/10/07 06:44:26;;;;;;;;;;;;;;;14.67;100.00;102088.00;4901917;29;19915;-96
2023/10/07 06:47:02;;;;;;;;;;;;;;;14.69;100.00;102094.19;4902579;29;19915;-96
2023/10/07 06:49:39;;;;;;;;;;;;;;;14.63;100.00;102083.53;4903045;29;19921;-96
2023/10/07 06:52:04;;;;;;;;;;;;;;;14.69;100.00;102088.94;4902947;29;19916;-96
2023/10/07 06:54:32;;;;;;;;;;;;;;;14.66;100.00;102094.09;4903346;29;19921;-96
2023/10/07 06:57:01;;;;;;;;;;;;;;;14.68;100.00;102097.63;4902572;29;19971;-96
2023/10/07 06:59:45;;;;;;;;;;;;;;;14.76;100.00;102097.88;4903539;29;20919;-96
2023/10/07 07:02:11;;;;;;;;;;;;;;;14.71;100.00;102110.84;4903379;29;19957;-96
2023/10/07 07:04:45;;;;;;;;;;;;;;;14.74;100.00;102110.94;4903681;29;19915;-96
2023/10/07 07:07:10;;;;;;;;;;;;;;;14.75;100.00;102112.69;4902879;29;20029;-96
2023/10/07 07:12:16;;;;;;;;;;;;;;;14.75;100.00;102086.47;4920608;29;19920;-96
2023/10/07 07:14:51;;;;;;;;;;;;;;;14.77;100.00;102095.28;4906033;29;19911;-96
2023/10/07 07:17:29;;;;;;;;;;;;;;;14.83;100.00;102104.13;4906350;29;20329;-96
2023/10/07 07:22:33;;;;;;;;;;;;;;;14.86;100.00;102110.38;4922946;29;19954;-96
2023/10/07 07:25:07;;;;;;;;;;;;;;;14.90;100.00;102120.09;4905835;29;20369;-96
2023/10/07 07:27:35;;;;;;;;;;;;;;;14.95;100.00;102114.97;4906233;29;19915;-96
2023/10/07 07:30:04;;;;;;;;;;;;;;;14.97;100.00;102121.13;4906486;29;19915;-96
2023/10/07 07:32:35;;;;;;;;;;;;;;;15.07;100.00;102123.16;4905646;29;19915;-96
2023/10/07 07:35:03;;;;;;;;;;;;;;;15.07;100.00;102124.91;4906062;29;19915;-96
2023/10/07 07:37:34;;;;;;;;;;;;;;;15.04;100.00;102125.69;4905290;29;20420;-96
2023/10/07 07:40:09;;;;;;;;;;;;;;;15.06;100.00;102121.41;4906419;29;19915;-96
2023/10/07 07:42:37;;;;;;;;;;;;;;;15.17;100.00;102126.03;4906479;29;19919;-96
2023/10/07 07:45:15;;;;;;;;;;;;;;;15.13;100.00;102119.78;4905133;29;19922;-96
2023/10/07 07:47:42;;;;;;;;;;;;;;;15.11;100.00;102125.00;4906496;29;19915;-96
2023/10/07 07:50:16;;;;;;;;;;;;;;;15.23;100.00;102124.44;4905498;29;19998;-96
2023/10/07 07:52:42;;;;;;;;;;;;;;;15.24;100.00;102125.34;4905987;29;19923;-96
2023/10/07 07:55:08;;;;;;;;;;;;;;;15.26;100.00;102121.88;4906269;29;19912;-96
2023/10/07 07:57:44;;;;;;;;;;;;;;;15.33;100.00;102133.44;4906365;29;19915;-96
2023/10/07 08:00:20;;;;;;;;;;;;;;;15.34;100.00;102134.31;4906288;29;19954;-96
2023/10/07 08:02:55;;;;;;;;;;;;;;;15.36;100.00;102138.75;4905771;29;19946;-96
2023/10/07 08:05:41;;;;;;;;;;;;;;;15.36;100.00;102148.38;4906396;29;19991;-96
2023/10/07 08:08:24;;;;;;;;;;;;;;;15.43;100.00;102143.31;4906284;29;19916;-96
2023/10/07 08:10:54;;;;;;;;;;;;;;;15.48;100.00;102149.56;4907162;29;19922;-96
2023/10/07 08:13:29;;;;;;;;;;;;;;;15.48;100.00;102152.19;4907305;29;19922;-96
2023/10/07 08:16:05;;;;;;;;;;;;;;;15.52;100.00;102144.38;4905756;29;19915;-96
2023/10/07 08:18:35;;;;;;;;;;;;;;;15.56;100.00;102157.63;4907164;29;19922;-96
2023/10/07 08:21:09;;;;;;;;;;;;;;;15.59;100.00;102156.81;4907277;29;19919;-96
2023/10/07 08:23:37;;;;;;;;;;;;;;;15.62;100.00;102151.63;4905514;29;19920;-96
2023/10/07 08:26:12;;;;;;;;;;;;;;;15.65;100.00;102143.81;4905276;29;19915;-96
2023/10/07 08:29:19;;;;;;;;;;;;;;;15.67;100.00;102139.50;4905369;29;19915;-96
2023/10/07 08:31:49;;;;;;;;;;;;;;;15.78;100.00;102138.03;5219752;23;19969;-96
2023/10/07 08:34:15;;;;;;;;;;;;;;;15.86;100.00;102135.59;4939588;29;20018;-96
2023/10/07 08:36:47;;;;;;;;;;;;;;;15.89;100.00;102140.00;4939793;29;19926;-96
2023/10/07 08:39:28;;;;;;;;;;;;;;;15.94;100.00;102143.63;4939849;29;19915;-96
2023/10/07 08:42:12;;;;;;;;;;;;;;;16.05;100.00;102136.88;4941614;29;19927;-96
2023/10/07 08:44:43;;;;;;;;;;;;;;;16.04;100.00;102139.47;4939893;29;19915;-96
2023/10/07 08:47:12;;;;;;;;;;;;;;;16.24;100.00;102140.78;4940554;29;19966;-96
2023/10/07 08:49:43;;;;;;;;;;;;;;;16.17;100.00;102137.13;4941303;29;19911;-96
2023/10/07 08:52:27;;;;;;;;;;;;;;;16.37;100.00;102136.66;4926617;29;19919;-96
2023/10/07 08:54:58;;;;;;;;;;;;;;;16.28;100.00;102121.59;4938996;29;19915;-96
2023/10/07 08:57:38;;;;;;;;;;;;;;;16.32;100.00;102135.66;4939059;29;19942;-96
2023/10/07 09:00:20;;;;;;;;;;;;;;;16.34;100.00;102126.09;4938511;29;19938;-96
2023/10/07 09:02:47;;;;;;;;;;;;;;;16.32;100.00;102135.66;4938756;29;19919;-96
2023/10/07 09:05:29;;;;;;;;;;;;;;;16.42;100.00;102127.09;4950766;29;19915;-96
2023/10/07 09:07:58;;;;;;;;;;;;;;;16.52;100.00;102128.19;4938652;29;19922;-96
2023/10/07 09:10:36;;;;;;;;;;;;;;;16.44;100.00;102130.69;4953979;29;19938;-96
2023/10/07 09:13:04;;;;;;;;;;;;;;;16.52;100.00;102130.81;4935855;29;19915;-96
2023/10/07 09:15:52;;;;;;;;;;;;;;;16.69;99.26;102120.63;4936767;29;19930;-96
2023/10/07 09:18:39;;;;;;;;;;;;;;;16.61;100.00;102128.38;4936457;29;19915;-96
2023/10/07 09:21:33;;;;;;;;;;;;;;;16.70;99.34;102119.78;4936662;29;19915;-96
2023/10/07 09:24:02;;;;;;;;;;;;;;;16.70;100.00;102114.50;4938638;29;19907;-96
2023/10/07 09:26:33;;;;;;;;;;;;;;;16.74;99.29;102108.41;4936471;29;19921;-96
2023/10/07 09:29:21;;;;;;;;;;;;;;;16.83;99.25;102108.59;4937122;29;19914;-96
2023/10/07 09:32:07;;;;;;;;;;;;;;;16.89;99.25;102121.03;4935710;29;19927;-96
2023/10/07 09:34:45;;;;;;;;;;;;;;;16.96;98.94;102122.00;4938829;29;19919;-96
2023/10/07 09:37:28;;;;;;;;;;;;;;;;;;;;;
2023/10/07 09:40:19;;;;;;;;;;;;;;;17.31;94.70;102132.28;4954692;29;20351;-96
2023/10/07 09:43:07;;;;;;;;;;;;;;;17.21;96.67;102126.84;4938905;29;19959;-96
2023/10/07 09:45:34;;;;;;;;;;;;;;;17.27;96.97;102119.91;4936353;29;19927;-96
2023/10/07 09:48:05;;;;;;;;;;;;;;;17.32;96.13;102126.13;4938523;29;19918;-96
2023/10/07 09:50:37;;;;;;;;;;;;;;;17.38;94.95;102137.66;4922803;29;19923;-96
2023/10/07 09:53:14;;;;;;;;;;;;;;;17.49;94.40;102122.00;4938489;29;19938;-96
2023/10/07 09:55:43;;;;;;;;;;;;;;;17.60;93.88;102113.38;4937482;29;19939;-96
2023/10/07 09:58:41;;;;;;;;;;;;;;;17.72;93.36;102108.28;4938531;29;19915;-96
2023/10/07 10:01:29;;;;;;;;;;;;;;;17.69;94.48;102117.03;4906774;29;20013;-96
2023/10/07 10:04:13;;;;;;;;;;;;;;;17.88;94.35;102099.72;4937636;29;19926;-96
2023/10/07 10:06:55;;;;;;;;;;;;;;;17.95;93.02;102110.41;4935569;29;19998;-96
2023/10/07 10:09:42;;;;;;;;;;;;;;;18.37;89.30;102125.00;4938009;29;20002;-96
2023/10/07 10:12:27;;;;;;;;;;;;;;;18.34;90.51;102114.41;4936497;29;19915;-96
2023/10/07 10:17:53;;;;;;;;;;;;;;;18.69;89.22;102137.69;4925725;29;19915;-96
2023/10/07 10:20:48;;;;;;;;;;;;;;;18.83;88.16;102136.06;4937283;29;19922;-96
2023/10/07 10:23:22;;;;;;;;;;;;;;;19.04;86.14;102142.44;4935689;29;19922;-96
2023/10/07 10:25:55;;;;;;;;;;;;;;;19.12;85.63;102148.69;4935633;29;19915;-96
2023/10/07 10:31:31;;;;;;;;;;;;;;;19.68;79.98;102143.84;4952795;29;19921;-96
2023/10/07 10:33:59;;;;;;;;;;;;;;;19.64;80.45;102143.81;4934340;29;19966;-96
2023/10/07 10:36:28;;;;;;;;;;;;;;;19.63;80.41;102139.41;4936191;29;19919;-96
2023/10/07 10:39:05;;;;;;;;;;;;;;;19.71;80.61;102138.56;4935325;29;20284;-96
2023/10/07 10:41:32;;;;;;;;;;;;;;;19.78;79.92;102138.66;4934043;29;19919;-96
2023/10/07 10:44:12;;;;;;;;;;;;;;;19.81;80.99;102135.13;4935089;29;19915;-96
2023/10/07 10:46:46;;;;;;;;;;;;;;;19.92;80.17;102144.03;4935375;29;20404;-96
2023/10/07 10:49:21;;;;;;;;;;;;;;;19.97;81.70;102134.34;4940687;29;19922;-96
2023/10/07 10:51:55;;;;;;;;;;;;;;;20.13;81.24;102137.97;4941879;29;19922;-96
2023/10/07 10:57:19;;;;;;;;;;;;;;;20.62;80.01;102131.06;4956805;29;19971;-96
2023/10/07 10:59:54;;;;;;;;;;;;;;;20.73;79.81;102131.13;4941187;29;19939;-96
2023/10/07 11:02:29;;;;;;;;;;;;;;;20.88;75.47;102128.50;4940539;29;19974;-96
2023/10/07 11:04:55;;;;;;;;;;;;;;;21.03;74.76;102127.63;4941269;29;19915;-96
2023/10/07 11:07:24;;;;;;;;;;;;;;;21.06;74.05;102138.25;4940406;29;19921;-96
2023/10/07 11:10:06;;;;;;;;;;;;;;;20.97;73.25;102139.13;4940150;29;19918;-96
2023/10/07 11:12:36;;;;;;;;;;;;;;;21.01;72.33;102129.38;4925561;29;19982;-96
2023/10/07 11:15:48;;;;;;;;;;;;;;;20.82;75.94;102131.13;4939085;29;19906;-96
2023/10/07 11:17:56;;;;;;;;;;;;;;;20.97;73.39;102123.22;4946443;29;19915;-96
2023/10/07 11:20:24;;;;;;;;;;;;;;;21.05;74.13;102123.22;4936770;29;19922;-96
2023/10/07 11:22:53;;;;;;;;;;;;;;;21.05;75.57;102119.69;4939536;29;19922;-96
2023/10/07 11:25:26;;;;;;;;;;;;;;;21.17;74.67;102120.56;4936823;29;19981;-96
2023/10/07 11:27:55;;;;;;;;;;;;;;;21.47;71.92;102117.91;4937119;29;20062;-96
2023/10/07 11:30:34;;;;;;;;;;;;;;;21.46;72.17;102108.16;4936868;29;19923;-96
2023/10/07 11:33:16;;;;;;;;;;;;;;;21.50;70.92;102102.84;4937263;29;19969;-96
2023/10/07 11:35:46;;;;;;;;;;;;;;;21.58;70.29;102110.84;4937356;29;19942;-96
2023/10/07 11:38:16;;;;;;;;;;;;;;;21.47;71.62;102107.28;4937049;29;19938;-96
2023/10/07 11:40:41;;;;;;;;;;;;;;;21.63;69.67;102114.34;4934618;29;19915;-96
2023/10/07 11:43:13;;;;;;;;;;;;;;;21.44;71.72;102107.31;4934343;29;19982;-96
2023/10/07 11:45:43;;;;;;;;;;;;;;;21.40;73.54;102103.75;4936011;29;19915;-96
2023/10/07 11:48:09;;;;;;;;;;;;;;;21.62;72.05;102107.28;4935108;29;19921;-96
2023/10/07 11:50:46;;;;;;;;;;;;;;;21.65;72.84;102098.44;4933839;29;19915;-96
2023/10/07 11:53:12;;;;;;;;;;;;;;;21.82;72.50;102101.91;4934355;29;19958;-96
2023/10/07 11:55:41;;;;;;;;;;;;;;;21.99;71.35;102107.19;4934650;29;19915;-96
2023/10/07 11:58:15;;;;;;;;;;;;;;;22.12;69.33;102115.09;4934350;29;19950;-96
2023/10/07 12:00:53;;;;;;;;;;;;;;;21.84;70.57;102102.81;4933107;29;19915;-96
2023/10/07 12:03:19;;;;;;;;;;;;;;;21.96;68.68;102112.50;4935821;29;19919;-96
2023/10/07 12:05:46;;;;;;;;;;;;;;;21.92;69.61;102104.56;4933726;29;20420;-96
2023/10/07 12:08:14;;;;;;;;;;;;;;;22.09;68.41;102101.81;4934105;29;19935;-96
2023/10/07 12:10:45;;;;;;;;;;;;;;;21.98;71.71;102109.84;4935421;29;19915;-96
2023/10/07 12:13:14;;;;;;;;;;;;;;;22.23;68.84;102107.94;4934323;29;19919;-96
2023/10/07 12:15:43;;;;;;;;;;;;;;;22.29;68.72;102110.59;4934310;29;19923;-96
2023/10/07 12:18:16;;;;;;;;;;;;;;;22.50;66.47;102116.72;4934613;29;19914;-96
2023/10/07 12:20:44;;;;;;;;;;;;;;;22.49;65.84;102121.16;4930412;29;19914;-96
2023/10/07 12:23:09;;;;;;;;;;;;;;;22.48;66.05;102103.44;4931487;29;19919;-96
2023/10/07 12:25:38;;;;;;;;;;;;;;;22.27;67.21;102107.06;4929594;29;20003;-96
2023/10/07 12:28:08;;;;;;;;;;;;;;;22.28;69.41;102110.59;4931639;29;19922;-96
2023/10/07 12:30:37;;;;;;;;;;;;;;;22.60;66.26;102110.44;4932706;29;19918;-96
2023/10/07 12:33:03;;;;;;;;;;;;;;;22.45;66.78;102107.88;4930913;29;19923;-96
2023/10/07 12:35:34;;;;;;;;;;;;;;;22.43;66.72;102112.31;4934149;29;19962;-96
2023/10/07 12:38:00;;;;;;;;;;;;;;;22.69;65.39;102112.16;4931509;29;19978;-96
2023/10/07 12:40:29;;;;;;;;;;;;;;;22.57;66.63;102115.78;4931803;29;20285;-96
2023/10/07 12:42:56;;;;;;;;;;;;;;;22.59;66.45;102114.00;4932995;29;19919;-96
2023/10/07 12:45:31;;;;;;;;;;;;;;;22.56;66.74;102124.63;4930181;29;19998;-96
2023/10/07 12:47:57;;;;;;;;;;;;;;;22.72;64.62;102112.13;4928386;29;20015;-96
2023/10/07 12:50:33;;;;;;;;;;;;;;;22.59;65.27;102116.66;4926574;29;19958;-96
2023/10/07 12:53:04;;;;;;;;;;;;;;;22.52;65.29;102121.13;4927491;29;19982;-96
2023/10/07 12:55:35;;;;;;;;;;;;;;;22.31;66.99;102114.13;4929051;29;19915;-96
2023/10/07 12:58:26;;;;;;;;;;;;;;;22.34;67.45;102114.13;4927219;29;19918;-96
2023/10/07 13:00:47;;;;;;;;;;;;;;;22.36;66.92;102111.47;4937701;29;19915;-96
2023/10/07 13:03:18;;;;;;;;;;;;;;;22.62;64.80;102111.31;4930806;29;19919;-96
2023/10/07 13:05:54;;;;;;;;;;;;;;;22.49;67.20;102109.63;4928530;29;20304;-96
2023/10/07 13:08:21;;;;;;;;;;;;;;;22.58;66.88;102107.81;4927952;29;19954;-96
2023/10/07 13:10:47;;;;;;;;;;;;;;;22.86;65.57;102106.72;4930981;29;19919;-96
2023/10/07 13:13:15;;;;;;;;;;;;;;;22.83;65.20;102112.94;4930246;29;19915;-96
2023/10/07 13:15:43;;;;;;;;;;;;;;;22.77;66.22;102101.47;4927082;29;19926;-96
2023/10/07 13:18:12;;;;;;;;;;;;;;;22.90;65.63;102105.81;4924513;29;19918;-96
2023/10/07 13:20:59;;;;;;;;;;;;;;;22.96;64.17;102108.41;4924780;29;20002;-96
2023/10/07 13:23:38;;;;;;;;;;;;;;;22.89;65.91;102099.59;4925738;29;19926;-96
2023/10/07 13:26:09;;;;;;;;;;;;;;;23.04;64.60;102082.66;4924414;29;19915;-96
2023/10/07 13:28:41;;;;;;;;;;;;;;;22.90;66.68;102079.25;4927106;29;20408;-96